Airfield :
LOGIN :

Register | Disclaimer

   EN    FR    IT 

 










Legend :    VFR   Marginal VFR   IFR   Intensive IFR   Very Intensive IFR
Visi :
Ceiling :
>= 8 km
>= 3000ft
5 to 8 km
1000 to 3000 ft
1500m to 5 km
500 to 1000 ft
800 to 1500m
200 to 500 ft
< 800m
< 200 ft
Symbols :   Thunderstorms  Fog  Heavy snow  Heavy precipitations  Wind > 20 kt
SIGMETs :     Misc.  Thunderstorms  Icing  Turbulence  Mountain Waves  Volcanic Ashes






- Airport Elevation : 286 ft
- IATA code : FFD


EGVA - RAF Fairford

CURRENT METAR :
  • 251156Z AUTO 33021G30KT 9999 FEW049 14/01 A2971 RMK AO2 PK WND 32033/16 SLP064 70010 T01370010 10137 20075 52020 $

EXPIRED METARs :
  • 251056Z AUTO 33021G30KT 9999 FEW040 BKN050 13/03 A2969 RMK AO2 PK WND 33032/25 SLP058 T01280032 $
  • 251041Z AUTO 33020G29KT 9999 SCT041 BKN050 13/04 A2969 RMK AO2 SLP058 $
  • 251001Z AUTO 32016G23KT 9999 BKN035 12/04 A2967 RMK AO2 SLP051 $
  • 250956Z AUTO 33014G21KT 9999 SCT035 12/04 A2967 RMK AO2 PK WND 32029/40 SLP051 T01220044 $

TAF AMD TAF EGVA
Valid from the 25 at 11:00 until the 26 at 12:00 UTC


251130Z 2511/2612 32018G30KT 9999 SCT040 520003 QNH2970INS
TEMPO 2511/2516 33022G35KT
BECMG 2516/2517 32015G25KT 9999 SCT040 510003 QNH2978INS
BECMG 2518/2519 32012G20KT 9999 SCT030 QNH2983INS
BECMG 2522/2523 31010G15KT 9999 FEW030 QNH2988INS
BECMG 2609/2610 34015G25KT 9999 FEW030 510003 QNH2989INS TX14/2513Z TN05/2606Z LAST NO AMDS AFT 2511 NEXT 2516



MET'MAP, your aeronautical weather chart ! - Copyright ORBIFLY December 2007 - Disclaimer

ORBIFLY MET'MAP TEAM :

Programming & Development : Alexandra Zaïnal
Concept & original design : Baudouin d'Aumeries
Assistance for programming : Marc-Olivier Méhu
Technical & hardware support : Manuel Goepfert

Contact : metmap@orbifly.com




SOURCES & CREDITS :

   NOAA